createdAt,value
2022-08-19T00:05:03.229Z,13.88
2022-08-19T00:10:09.177Z,15.70
2022-08-19T00:15:14.737Z,15.68
2022-08-19T00:20:21.015Z,16.20
2022-08-19T00:25:29.869Z,16.00
2022-08-19T00:30:37.888Z,16.50
2022-08-19T00:35:45.080Z,16.83
2022-08-19T00:40:47.660Z,17.42
2022-08-19T00:45:50.974Z,18.83
2022-08-19T00:50:54.492Z,18.43
2022-08-19T00:56:01.340Z,16.70
2022-08-19T01:01:06.042Z,15.43
2022-08-19T01:06:10.566Z,15.40
2022-08-19T01:11:15.406Z,15.45
2022-08-19T01:16:20.020Z,15.53
2022-08-19T01:21:22.320Z,15.48
2022-08-19T01:26:28.071Z,15.30
2022-08-19T01:31:33.296Z,15.57
2022-08-19T01:36:39.010Z,16.25
2022-08-19T01:41:43.963Z,16.08
2022-08-19T01:46:48.512Z,15.93
2022-08-19T01:51:54.550Z,16.90
2022-08-19T01:57:01.463Z,16.50
2022-08-19T02:02:13.447Z,16.25
2022-08-19T02:07:16.051Z,16.35
2022-08-19T02:12:21.862Z,15.98
2022-08-19T02:17:24.128Z,16.02
2022-08-19T02:22:31.317Z,16.60
2022-08-19T02:27:36.199Z,17.83
2022-08-19T02:32:44.255Z,17.13
2022-08-19T02:38:08.320Z,17.02
2022-08-19T02:43:10.680Z,16.70
2022-08-19T02:48:21.834Z,16.17
2022-08-19T02:53:27.842Z,17.50
2022-08-19T02:58:30.165Z,15.95
2022-08-19T03:03:37.453Z,16.23
2022-08-19T03:08:43.287Z,15.87
2022-08-19T03:13:50.024Z,16.17
2022-08-19T03:18:57.771Z,15.27
2022-08-19T03:24:04.178Z,15.57
2022-08-19T03:29:11.859Z,15.13
2022-08-19T03:34:18.849Z,14.80
2022-08-19T03:39:21.786Z,15.13
2022-08-19T03:44:26.625Z,15.43
2022-08-19T03:49:36.160Z,15.05
2022-08-19T03:54:46.748Z,15.97
2022-08-19T03:59:49.120Z,15.30
2022-08-19T04:04:54.300Z,15.20
2022-08-19T04:09:56.668Z,16.90
2022-08-19T04:14:59.466Z,15.63
2022-08-19T04:20:01.970Z,15.73
2022-08-19T04:25:12.562Z,15.32
2022-08-19T04:30:18.765Z,16.07
2022-08-19T04:35:26.441Z,15.15
2022-08-19T04:40:53.106Z,17.08
2022-08-19T04:46:00.750Z,17.52
2022-08-19T04:51:08.209Z,15.90
2022-08-19T04:56:16.616Z,16.38
2022-08-19T05:01:20.518Z,17.10
2022-08-19T05:06:26.727Z,17.60
2022-08-19T05:11:35.283Z,17.97
2022-08-19T05:16:37.623Z,17.65
2022-08-19T05:21:59.747Z,17.60
2022-08-19T05:27:07.206Z,16.05
2022-08-19T05:32:11.567Z,15.98
2022-08-19T05:37:16.454Z,15.75
2022-08-19T05:42:21.600Z,15.23
2022-08-19T05:47:26.399Z,16.30
2022-08-19T05:52:29.086Z,16.27
2022-08-19T05:57:35.884Z,16.60
2022-08-19T06:02:38.497Z,15.55
2022-08-19T06:07:45.784Z,16.95
2022-08-19T06:12:50.812Z,14.57
2022-08-19T06:17:57.828Z,14.18
2022-08-19T06:23:07.535Z,13.50
2022-08-19T06:28:14.991Z,13.50
2022-08-19T07:54:50.728Z,12.10
2022-08-19T07:59:57.998Z,11.82
2022-08-19T08:05:24.650Z,12.63
2022-08-19T08:10:29.363Z,11.90
2022-08-19T08:15:37.498Z,11.38
2022-08-19T08:20:42.373Z,11.50
2022-08-19T08:25:51.333Z,11.30
2022-08-19T08:30:56.701Z,11.77
2022-08-19T08:36:03.878Z,12.38
2022-08-19T08:41:09.721Z,10.10
2022-08-19T08:46:32.579Z,10.32
2022-08-19T08:56:52.803Z,10.18
2022-08-19T09:01:58.477Z,8.80
2022-08-19T09:07:35.079Z,9.57
2022-08-19T09:12:51.121Z,8.95
2022-08-19T09:18:00.876Z,8.85
2022-08-19T09:23:05.822Z,8.90
2022-08-19T09:28:12.674Z,8.23
2022-08-19T09:33:24.783Z,8.20
2022-08-19T09:38:29.660Z,8.45
2022-08-19T09:43:44.544Z,8.90
2022-08-19T09:48:51.580Z,8.52
2022-08-19T09:54:00.095Z,8.45
2022-08-19T09:59:07.326Z,8.48
2022-08-19T10:04:14.729Z,8.73
2022-08-19T10:09:33.759Z,8.35
2022-08-19T10:14:38.474Z,8.13
2022-08-19T10:19:55.241Z,8.13
2022-08-19T10:24:58.590Z,8.43
2022-08-19T10:30:09.991Z,7.90
2022-08-19T10:35:16.288Z,7.90
2022-08-19T10:40:24.334Z,7.50
2022-08-19T10:45:31.824Z,10.48
2022-08-19T10:50:56.670Z,8.55
2022-08-19T10:56:18.012Z,8.18
2022-08-19T11:01:22.988Z,8.10
2022-08-19T11:06:28.199Z,7.35
2022-08-19T11:11:31.411Z,7.82
2022-08-19T11:16:34.517Z,8.45
2022-08-19T11:21:38.831Z,8.82
2022-08-19T11:26:41.545Z,8.27
2022-08-19T11:31:45.315Z,7.95
2022-08-19T11:36:51.664Z,8.50
2022-08-19T11:41:56.732Z,7.97
2022-08-19T11:47:09.344Z,8.50
2022-08-19T11:52:12.126Z,8.95
2022-08-19T11:57:18.039Z,9.30
2022-08-19T12:02:24.377Z,9.75
2022-08-19T12:07:26.806Z,7.95
2022-08-19T12:12:29.356Z,8.27
2022-08-19T12:17:34.761Z,8.88
2022-08-19T12:22:37.922Z,8.98
2022-08-19T12:27:56.762Z,8.18
2022-08-19T12:33:00.229Z,7.95
2022-08-19T12:38:07.814Z,8.15
2022-08-19T12:43:10.115Z,8.95
2022-08-19T12:48:32.978Z,8.13
2022-08-19T12:53:39.276Z,7.55
2022-08-19T12:58:50.198Z,7.85
2022-08-19T13:03:56.135Z,8.05
2022-08-19T13:08:59.805Z,7.65
2022-08-19T13:14:07.100Z,7.88
2022-08-19T13:19:13.107Z,8.25
2022-08-19T13:24:18.387Z,7.47
2022-08-19T13:29:41.989Z,7.82
2022-08-19T13:34:47.961Z,8.15
2022-08-19T13:39:50.274Z,7.97
2022-08-19T13:44:57.051Z,8.30
2022-08-19T13:50:02.944Z,7.88
2022-08-19T13:55:11.393Z,7.80
2022-08-19T14:00:19.168Z,8.10
2022-08-19T14:05:24.445Z,8.00
2022-08-19T14:10:31.920Z,7.95
2022-08-19T14:15:34.626Z,8.20
2022-08-19T14:20:36.956Z,7.93
2022-08-19T14:25:44.536Z,7.38
2022-08-19T14:30:46.897Z,7.70
2022-08-19T14:35:51.440Z,7.53
2022-08-19T14:41:17.732Z,7.63
2022-08-19T14:46:24.426Z,7.57
2022-08-19T14:51:32.768Z,7.88
2022-08-19T14:56:35.325Z,8.23
2022-08-19T15:01:40.486Z,7.78
2022-08-19T15:06:45.468Z,8.20
2022-08-19T15:11:52.579Z,7.78
2022-08-19T15:16:57.510Z,9.38
2022-08-19T15:22:05.003Z,8.70
2022-08-19T15:27:09.722Z,8.40
2022-08-19T15:32:12.340Z,9.05
2022-08-19T15:37:23.183Z,8.68
2022-08-19T15:42:29.866Z,9.23
2022-08-19T15:47:35.283Z,9.25
2022-08-19T15:52:49.946Z,9.82
2022-08-19T15:58:11.717Z,8.73
2022-08-19T16:03:56.510Z,8.57
2022-08-19T16:09:04.198Z,8.68
2022-08-19T16:14:09.586Z,7.72
2022-08-19T16:19:15.741Z,8.57
2022-08-19T16:24:26.563Z,8.75
2022-08-19T16:29:34.663Z,8.75
2022-08-19T16:34:52.004Z,9.35
2022-08-19T16:39:56.860Z,9.68
2022-08-19T16:44:59.233Z,9.93
2022-08-19T16:50:02.113Z,9.70
2022-08-19T16:55:06.061Z,9.48
2022-08-19T17:00:11.015Z,10.52
2022-08-19T17:05:13.345Z,9.95
2022-08-19T17:10:15.761Z,10.27
2022-08-19T17:15:20.286Z,10.02
2022-08-19T17:20:25.121Z,10.15
2022-08-19T17:25:31.612Z,10.75
2022-08-19T17:30:36.911Z,12.52
2022-08-19T17:35:43.778Z,10.38
2022-08-19T17:40:51.668Z,16.08
2022-08-19T17:45:54.113Z,11.25
2022-08-19T17:50:56.475Z,11.02
2022-08-19T17:56:06.131Z,10.32
2022-08-19T18:01:09.734Z,10.60
2022-08-19T18:06:16.695Z,10.60
2022-08-19T18:11:19.347Z,10.40
2022-08-19T18:16:28.975Z,11.00
2022-08-19T18:21:41.789Z,10.57
2022-08-19T18:26:44.069Z,12.35
2022-08-19T18:31:48.137Z,10.88
2022-08-19T18:36:53.713Z,14.98
2022-08-19T18:42:17.317Z,12.30
2022-08-19T18:47:43.262Z,10.13
2022-08-19T18:52:47.971Z,11.80
2022-08-19T18:57:55.387Z,10.18
2022-08-19T19:02:58.233Z,11.48
2022-08-19T19:08:06.854Z,10.88
2022-08-19T19:13:16.443Z,13.95
2022-08-19T19:18:29.103Z,10.45
2022-08-19T19:23:47.016Z,10.63
2022-08-19T19:28:52.822Z,11.45
2022-08-19T19:34:00.536Z,10.45
2022-08-19T19:39:03.435Z,10.60
2022-08-19T19:44:30.749Z,10.77
2022-08-19T19:49:52.511Z,11.13
2022-08-19T19:55:04.455Z,11.02
2022-08-19T20:00:09.157Z,11.52
2022-08-19T20:05:12.589Z,12.00
2022-08-19T20:10:22.206Z,11.05
2022-08-19T20:15:33.822Z,11.48
2022-08-19T20:20:44.015Z,11.27
2022-08-19T20:25:49.532Z,11.32
2022-08-19T20:30:54.583Z,10.98
2022-08-19T20:35:59.841Z,11.55
2022-08-19T20:41:07.302Z,11.07
2022-08-19T20:46:16.271Z,11.40
2022-08-19T20:51:24.116Z,10.57
2022-08-19T20:56:34.113Z,11.10
2022-08-19T21:01:41.841Z,10.85
2022-08-19T21:06:46.536Z,11.57
2022-08-19T21:11:51.462Z,11.02
2022-08-19T21:16:58.616Z,11.25
2022-08-19T21:22:07.022Z,11.30
2022-08-19T21:27:10.965Z,10.95
2022-08-19T21:32:16.493Z,10.73
2022-08-19T21:37:25.104Z,10.40
2022-08-19T21:42:29.189Z,11.40
2022-08-19T21:47:31.688Z,12.57
2022-08-19T21:52:36.516Z,11.25
2022-08-19T21:57:41.461Z,10.93
2022-08-19T22:02:44.020Z,10.75
2022-08-19T22:07:57.535Z,10.15
2022-08-19T22:13:08.847Z,10.75
2022-08-19T22:18:13.140Z,10.50
2022-08-19T22:23:20.482Z,10.27
2022-08-19T22:28:27.517Z,10.32
2022-08-19T22:33:30.537Z,9.98
2022-08-19T22:38:36.309Z,9.55
2022-08-19T22:43:48.663Z,9.57
2022-08-19T22:48:56.647Z,9.27
2022-08-19T22:54:08.461Z,8.93
2022-08-19T22:59:15.722Z,9.13
2022-08-19T23:04:21.067Z,8.75
2022-08-19T23:09:25.848Z,8.98
2022-08-19T23:14:32.921Z,8.88
2022-08-19T23:19:38.610Z,8.18
2022-08-19T23:24:43.344Z,8.63
2022-08-19T23:30:06.970Z,8.40
2022-08-19T23:35:09.723Z,9.00
2022-08-19T23:40:21.936Z,8.98
2022-08-19T23:45:30.341Z,8.18
2022-08-19T23:50:40.636Z,8.80
2022-08-19T23:55:48.410Z,8.75
